sensor_id;sensor_type;location;lat;lon;timestamp;pressure;altitude;pressure_sealevel;temperature;humidity
54592;BME280;40488;48.558;18.150;2023-11-19T00:00:41;100181.97;;;1.87;80.04
54592;BME280;40488;48.558;18.150;2023-11-19T00:03:20;100163.06;;;1.76;80.19
54592;BME280;40488;48.558;18.150;2023-11-19T00:05:49;100173.69;;;1.90;80.12
54592;BME280;40488;48.558;18.150;2023-11-19T00:08:18;100162.84;;;1.91;80.03
54592;BME280;40488;48.558;18.150;2023-11-19T00:10:47;100163.44;;;1.85;79.67
54592;BME280;40488;48.558;18.150;2023-11-19T00:13:17;100164.06;;;1.80;80.60
54592;BME280;40488;48.558;18.150;2023-11-19T00:15:46;100155.47;;;1.75;79.86
54592;BME280;40488;48.558;18.150;2023-11-19T00:18:16;100166.19;;;1.71;80.70
54592;BME280;40488;48.558;18.150;2023-11-19T00:20:45;100172.13;;;1.73;80.45
54592;BME280;40488;48.558;18.150;2023-11-19T00:23:14;100165.63;;;1.78;80.48
54592;BME280;40488;48.558;18.150;2023-11-19T00:25:43;100158.44;;;1.66;81.17
54592;BME280;40488;48.558;18.150;2023-11-19T00:28:12;100166.38;;;1.75;81.74
54592;BME280;40488;48.558;18.150;2023-11-19T00:30:42;100157.81;;;1.91;80.94
54592;BME280;40488;48.558;18.150;2023-11-19T00:33:11;100154.75;;;1.98;81.32
54592;BME280;40488;48.558;18.150;2023-11-19T00:35:40;100150.41;;;1.94;81.43
54592;BME280;40488;48.558;18.150;2023-11-19T00:38:09;100166.28;;;1.93;81.58
54592;BME280;40488;48.558;18.150;2023-11-19T00:40:38;100159.28;;;1.86;80.52
54592;BME280;40488;48.558;18.150;2023-11-19T00:43:08;100156.28;;;1.94;81.33
54592;BME280;40488;48.558;18.150;2023-11-19T00:45:37;100144.56;;;1.95;81.27
54592;BME280;40488;48.558;18.150;2023-11-19T00:48:07;100142.59;;;1.88;81.68
54592;BME280;40488;48.558;18.150;2023-11-19T00:50:36;100153.38;;;1.85;81.33
54592;BME280;40488;48.558;18.150;2023-11-19T00:53:09;100146.38;;;1.78;80.90
54592;BME280;40488;48.558;18.150;2023-11-19T00:55:38;100150.44;;;1.75;82.00
54592;BME280;40488;48.558;18.150;2023-11-19T00:58:10;100137.19;;;1.79;81.89
54592;BME280;40488;48.558;18.150;2023-11-19T01:00:39;100146.66;;;1.84;81.54
54592;BME280;40488;48.558;18.150;2023-11-19T01:03:09;100118.69;;;1.58;81.56
54592;BME280;40488;48.558;18.150;2023-11-19T01:05:41;100139.97;;;1.66;81.67
54592;BME280;40488;48.558;18.150;2023-11-19T01:08:11;100136.91;;;1.73;81.57
54592;BME280;40488;48.558;18.150;2023-11-19T01:10:40;100129.69;;;1.80;82.06
54592;BME280;40488;48.558;18.150;2023-11-19T01:13:09;100120.94;;;1.91;81.96
54592;BME280;40488;48.558;18.150;2023-11-19T01:15:38;100105.88;;;1.93;82.56
54592;BME280;40488;48.558;18.150;2023-11-19T01:18:10;100100.84;;;1.93;82.15
54592;BME280;40488;48.558;18.150;2023-11-19T01:20:40;100100.84;;;1.93;82.41
54592;BME280;40488;48.558;18.150;2023-11-19T01:23:09;100098.22;;;1.90;82.00
54592;BME280;40488;48.558;18.150;2023-11-19T01:25:38;100108.72;;;1.80;82.17
54592;BME280;40488;48.558;18.150;2023-11-19T01:28:07;100102.00;;;1.80;82.27
54592;BME280;40488;48.558;18.150;2023-11-19T01:30:37;100085.41;;;1.84;81.77
54592;BME280;40488;48.558;18.150;2023-11-19T01:33:06;100083.00;;;1.87;82.28
54592;BME280;40488;48.558;18.150;2023-11-19T01:35:37;100090.06;;;1.75;82.03
54592;BME280;40488;48.558;18.150;2023-11-19T01:38:05;100089.25;;;1.76;82.22
54592;BME280;40488;48.558;18.150;2023-11-19T01:40:36;100080.66;;;1.71;82.39
54592;BME280;40488;48.558;18.150;2023-11-19T01:43:05;100081.22;;;1.84;82.48
54592;BME280;40488;48.558;18.150;2023-11-19T01:45:34;100080.50;;;1.87;82.32
54592;BME280;40488;48.558;18.150;2023-11-19T01:48:03;100075.69;;;1.93;82.51
54592;BME280;40488;48.558;18.150;2023-11-19T01:50:33;100075.81;;;1.96;82.68
54592;BME280;40488;48.558;18.150;2023-11-19T01:53:04;100081.41;;;1.89;82.66
54592;BME280;40488;48.558;18.150;2023-11-19T01:55:33;100072.81;;;1.84;82.48
54592;BME280;40488;48.558;18.150;2023-11-19T01:58:02;100073.88;;;1.89;83.04
54592;BME280;40488;48.558;18.150;2023-11-19T02:00:32;100058.63;;;1.86;81.94
54592;BME280;40488;48.558;18.150;2023-11-19T02:03:02;100063.19;;;1.74;82.31
54592;BME280;40488;48.558;18.150;2023-11-19T02:05:33;100061.56;;;1.76;82.19
54592;BME280;40488;48.558;18.150;2023-11-19T02:08:03;100048.94;;;1.74;82.70
54592;BME280;40488;48.558;18.150;2023-11-19T02:10:32;100042.81;;;1.68;82.19
54592;BME280;40488;48.558;18.150;2023-11-19T02:13:01;100037.41;;;1.59;82.99
54592;BME280;40488;48.558;18.150;2023-11-19T02:15:33;100033.97;;;1.57;82.16
54592;BME280;40488;48.558;18.150;2023-11-19T02:18:19;100025.88;;;1.64;82.51
54592;BME280;40488;48.558;18.150;2023-11-19T02:20:49;100004.22;;;1.67;82.31
54592;BME280;40488;48.558;18.150;2023-11-19T02:23:20;100001.53;;;1.63;82.42
54592;BME280;40488;48.558;18.150;2023-11-19T02:26:08;100013.28;;;1.64;83.39
54592;BME280;40488;48.558;18.150;2023-11-19T02:28:43;100018.41;;;1.65;83.36
54592;BME280;40488;48.558;18.150;2023-11-19T02:31:12;100004.28;;;1.69;82.81
54592;BME280;40488;48.558;18.150;2023-11-19T02:33:41;99986.09;;;1.76;82.93
54592;BME280;40488;48.558;18.150;2023-11-19T02:36:10;99981.41;;;1.85;82.75
54592;BME280;40488;48.558;18.150;2023-11-19T02:38:40;99949.84;;;1.71;83.61
54592;BME280;40488;48.558;18.150;2023-11-19T02:41:09;99988.19;;;1.86;82.92
54592;BME280;40488;48.558;18.150;2023-11-19T02:43:38;99974.22;;;1.72;82.93
54592;BME280;40488;48.558;18.150;2023-11-19T02:46:08;99987.31;;;1.85;83.17
54592;BME280;40488;48.558;18.150;2023-11-19T02:48:41;99981.78;;;1.94;82.87
54592;BME280;40488;48.558;18.150;2023-11-19T02:51:10;99987.00;;;1.98;82.69
54592;BME280;40488;48.558;18.150;2023-11-19T02:53:39;99980.06;;;1.93;82.32
54592;BME280;40488;48.558;18.150;2023-11-19T02:56:08;99968.91;;;1.86;83.02
54592;BME280;40488;48.558;18.150;2023-11-19T02:58:47;99972.34;;;1.88;83.54
54592;BME280;40488;48.558;18.150;2023-11-19T03:01:23;99969.03;;;1.89;83.33
54592;BME280;40488;48.558;18.150;2023-11-19T03:04:00;99954.91;;;1.93;83.23
54592;BME280;40488;48.558;18.150;2023-11-19T03:06:31;99953.53;;;2.01;83.53
54592;BME280;40488;48.558;18.150;2023-11-19T03:09:00;99953.88;;;2.10;83.70
54592;BME280;40488;48.558;18.150;2023-11-19T03:11:34;99952.97;;;2.08;82.93
54592;BME280;40488;48.558;18.150;2023-11-19T03:14:03;99935.94;;;2.01;83.19
54592;BME280;40488;48.558;18.150;2023-11-19T03:16:33;99923.09;;;1.95;82.97
54592;BME280;40488;48.558;18.150;2023-11-19T03:19:02;99909.59;;;1.93;83.07
54592;BME280;40488;48.558;18.150;2023-11-19T03:21:32;99877.88;;;1.74;82.54
54592;BME280;40488;48.558;18.150;2023-11-19T03:24:01;99924.72;;;1.93;83.18
54592;BME280;40488;48.558;18.150;2023-11-19T03:26:30;99926.31;;;1.91;82.79
54592;BME280;40488;48.558;18.150;2023-11-19T03:29:01;99885.72;;;1.82;82.74
54592;BME280;40488;48.558;18.150;2023-11-19T03:31:30;99908.44;;;2.07;83.56
54592;BME280;40488;48.558;18.150;2023-11-19T03:34:01;99905.47;;;2.17;83.73
54592;BME280;40488;48.558;18.150;2023-11-19T03:36:33;99894.81;;;2.24;83.45
54592;BME280;40488;48.558;18.150;2023-11-19T03:39:02;99882.81;;;2.17;82.71
54592;BME280;40488;48.558;18.150;2023-11-19T03:41:31;99890.56;;;2.23;82.67
54592;BME280;40488;48.558;18.150;2023-11-19T03:44:03;99900.63;;;2.23;82.84
54592;BME280;40488;48.558;18.150;2023-11-19T03:46:32;99890.56;;;2.23;82.44
54592;BME280;40488;48.558;18.150;2023-11-19T03:49:04;99888.75;;;2.19;82.33
54592;BME280;40488;48.558;18.150;2023-11-19T03:51:34;99880.09;;;2.11;82.86
54592;BME280;40488;48.558;18.150;2023-11-19T03:54:03;99881.66;;;2.09;82.73
54592;BME280;40488;48.558;18.150;2023-11-19T03:56:34;99895.19;;;2.11;83.11
54592;BME280;40488;48.558;18.150;2023-11-19T03:59:02;99887.41;;;2.05;82.38
54592;BME280;40488;48.558;18.150;2023-11-19T04:01:31;99881.06;;;1.92;82.40
54592;BME280;40488;48.558;18.150;2023-11-19T04:04:00;99886.06;;;1.91;82.60
54592;BME280;40488;48.558;18.150;2023-11-19T04:06:31;99900.91;;;1.85;82.35
54592;BME280;40488;48.558;18.150;2023-11-19T04:09:00;99902.91;;;1.71;82.49
54592;BME280;40488;48.558;18.150;2023-11-19T04:11:29;99920.22;;;1.64;82.65
54592;BME280;40488;48.558;18.150;2023-11-19T04:13:58;99914.16;;;1.59;82.78
54592;BME280;40488;48.558;18.150;2023-11-19T04:16:27;99905.13;;;1.64;83.64
54592;BME280;40488;48.558;18.150;2023-11-19T04:18:58;99908.56;;;1.66;83.15
54592;BME280;40488;48.558;18.150;2023-11-19T04:21:27;99921.09;;;1.64;83.44
54592;BME280;40488;48.558;18.150;2023-11-19T04:23:57;99925.16;;;1.61;83.26
54592;BME280;40488;48.558;18.150;2023-11-19T04:26:26;99916.47;;;1.53;83.92
54592;BME280;40488;48.558;18.150;2023-11-19T04:28:58;99919.75;;;1.52;84.02
54592;BME280;40488;48.558;18.150;2023-11-19T04:31:29;99918.28;;;1.57;84.69
54592;BME280;40488;48.558;18.150;2023-11-19T04:33:59;99925.94;;;1.60;84.04
54592;BME280;40488;48.558;18.150;2023-11-19T04:36:28;99924.31;;;1.60;83.89
54592;BME280;40488;48.558;18.150;2023-11-19T04:38:59;99925.25;;;1.64;84.34
54592;BME280;40488;48.558;18.150;2023-11-19T04:41:28;99884.47;;;1.49;85.05
54592;BME280;40488;48.558;18.150;2023-11-19T04:43:56;99910.06;;;1.61;84.93
54592;BME280;40488;48.558;18.150;2023-11-19T04:46:25;99924.00;;;1.53;84.65
54592;BME280;40488;48.558;18.150;2023-11-19T04:48:54;99911.19;;;1.47;84.96
54592;BME280;40488;48.558;18.150;2023-11-19T04:51:23;99908.56;;;1.44;85.05
54592;BME280;40488;48.558;18.150;2023-11-19T04:53:52;99904.44;;;1.46;85.06
54592;BME280;40488;48.558;18.150;2023-11-19T04:56:22;99910.56;;;1.52;85.02
54592;BME280;40488;48.558;18.150;2023-11-19T04:58:51;99912.16;;;1.50;85.58
54592;BME280;40488;48.558;18.150;2023-11-19T05:01:20;99910.50;;;1.51;85.85
54592;BME280;40488;48.558;18.150;2023-11-19T05:03:49;99836.19;;;1.14;85.79
54592;BME280;40488;48.558;18.150;2023-11-19T05:06:19;99908.47;;;1.63;86.10
54592;BME280;40488;48.558;18.150;2023-11-19T05:08:47;99903.66;;;1.69;85.65
54592;BME280;40488;48.558;18.150;2023-11-19T05:11:16;99903.25;;;1.80;85.60
54592;BME280;40488;48.558;18.150;2023-11-19T05:13:48;99898.69;;;1.92;85.41
54592;BME280;40488;48.558;18.150;2023-11-19T05:16:17;99906.59;;;2.01;86.13
54592;BME280;40488;48.558;18.150;2023-11-19T05:18:48;99914.69;;;1.94;85.60
54592;BME280;40488;48.558;18.150;2023-11-19T05:21:17;99908.00;;;1.95;85.81
54592;BME280;40488;48.558;18.150;2023-11-19T05:23:45;99903.84;;;1.95;85.58
54592;BME280;40488;48.558;18.150;2023-11-19T05:26:19;99895.50;;;1.96;85.31
54592;BME280;40488;48.558;18.150;2023-11-19T05:28:50;99892.16;;;1.97;85.61
54592;BME280;40488;48.558;18.150;2023-11-19T05:31:19;99901.72;;;2.06;85.16
54592;BME280;40488;48.558;18.150;2023-11-19T05:33:48;99894.16;;;2.06;85.99
54592;BME280;40488;48.558;18.150;2023-11-19T05:36:16;99896.56;;;2.03;85.94
54592;BME280;40488;48.558;18.150;2023-11-19T05:38:45;99883.50;;;2.13;85.50
54592;BME280;40488;48.558;18.150;2023-11-19T05:41:14;99871.09;;;2.18;85.33
54592;BME280;40488;48.558;18.150;2023-11-19T05:43:43;99856.84;;;2.18;85.56
54592;BME280;40488;48.558;18.150;2023-11-19T05:46:13;99856.72;;;2.15;85.38
54592;BME280;40488;48.558;18.150;2023-11-19T05:48:46;99848.31;;;2.15;85.37
54592;BME280;40488;48.558;18.150;2023-11-19T05:51:15;99815.28;;;2.06;85.57
54592;BME280;40488;48.558;18.150;2023-11-19T05:53:44;99833.59;;;2.25;85.47
54592;BME280;40488;48.558;18.150;2023-11-19T05:56:14;99832.00;;;2.27;85.21
54592;BME280;40488;48.558;18.150;2023-11-19T05:58:43;99835.59;;;2.35;84.82
54592;BME280;40488;48.558;18.150;2023-11-19T06:01:14;99823.56;;;2.27;84.39
54592;BME280;40488;48.558;18.150;2023-11-19T06:03:43;99830.16;;;2.23;84.49
54592;BME280;40488;48.558;18.150;2023-11-19T06:06:17;99830.47;;;2.32;85.14
54592;BME280;40488;48.558;18.150;2023-11-19T06:08:46;99833.19;;;2.38;84.51
54592;BME280;40488;48.558;18.150;2023-11-19T06:11:15;99836.00;;;2.47;84.64
54592;BME280;40488;48.558;18.150;2023-11-19T06:13:46;99834.31;;;2.46;84.33
54592;BME280;40488;48.558;18.150;2023-11-19T06:16:19;99841.88;;;2.46;83.96
54592;BME280;40488;48.558;18.150;2023-11-19T06:18:48;99836.13;;;2.50;84.28
54592;BME280;40488;48.558;18.150;2023-11-19T06:21:17;99846.75;;;2.42;84.48
54592;BME280;40488;48.558;18.150;2023-11-19T06:23:46;99843.22;;;2.37;84.45
54592;BME280;40488;48.558;18.150;2023-11-19T06:26:16;99843.41;;;2.43;84.52
54592;BME280;40488;48.558;18.150;2023-11-19T06:28:45;99841.38;;;2.56;84.20
54592;BME280;40488;48.558;18.150;2023-11-19T06:31:14;99849.25;;;2.65;84.23
54592;BME280;40488;48.558;18.150;2023-11-19T06:33:45;99851.88;;;2.68;84.25
54592;BME280;40488;48.558;18.150;2023-11-19T06:36:15;99851.88;;;2.68;83.57
54592;BME280;40488;48.558;18.150;2023-11-19T06:38:45;99822.75;;;2.51;83.56
54592;BME280;40488;48.558;18.150;2023-11-19T06:41:13;99853.56;;;2.69;83.94
54592;BME280;40488;48.558;18.150;2023-11-19T06:43:42;99851.19;;;2.74;83.21
54592;BME280;40488;48.558;18.150;2023-11-19T06:46:15;99851.16;;;2.72;83.98
54592;BME280;40488;48.558;18.150;2023-11-19T06:48:46;99854.63;;;2.76;83.58
54592;BME280;40488;48.558;18.150;2023-11-19T06:51:15;99849.53;;;2.75;83.29
54592;BME280;40488;48.558;18.150;2023-11-19T06:53:43;99831.50;;;2.62;83.49
54592;BME280;40488;48.558;18.150;2023-11-19T06:56:20;99863.66;;;2.69;82.86
54592;BME280;40488;48.558;18.150;2023-11-19T06:58:49;99846.84;;;2.68;83.07
54592;BME280;40488;48.558;18.150;2023-11-19T07:01:19;99836.75;;;2.68;83.56
54592;BME280;40488;48.558;18.150;2023-11-19T07:03:49;99826.28;;;2.56;83.86
54592;BME280;40488;48.558;18.150;2023-11-19T07:06:18;99840.56;;;2.57;83.75
54592;BME280;40488;48.558;18.150;2023-11-19T07:09:03;99849.75;;;2.55;84.13
54592;BME280;40488;48.558;18.150;2023-11-19T07:11:38;99846.50;;;2.59;84.20
54592;BME280;40488;48.558;18.150;2023-11-19T07:14:07;99855.75;;;2.59;83.53
54592;BME280;40488;48.558;18.150;2023-11-19T07:16:36;99853.91;;;2.55;83.95
54592;BME280;40488;48.558;18.150;2023-11-19T07:19:07;99830.97;;;2.47;83.82
54592;BME280;40488;48.558;18.150;2023-11-19T07:21:36;99863.47;;;2.63;84.11
54592;BME280;40488;48.558;18.150;2023-11-19T07:24:07;99829.59;;;2.55;84.34
54592;BME280;40488;48.558;18.150;2023-11-19T07:26:39;99833.22;;;2.63;84.29
54592;BME280;40488;48.558;18.150;2023-11-19T07:29:10;99829.47;;;2.52;84.22
54592;BME280;40488;48.558;18.150;2023-11-19T07:31:38;99823.22;;;2.41;84.20
54592;BME280;40488;48.558;18.150;2023-11-19T07:34:09;99811.25;;;2.34;84.22
54592;BME280;40488;48.558;18.150;2023-11-19T07:36:38;99804.41;;;2.30;84.70
54592;BME280;40488;48.558;18.150;2023-11-19T07:39:08;99748.78;;;1.99;84.84
54592;BME280;40488;48.558;18.150;2023-11-19T07:41:38;99813.69;;;2.33;84.85
54592;BME280;40488;48.558;18.150;2023-11-19T07:44:08;99817.97;;;2.35;85.77
54592;BME280;40488;48.558;18.150;2023-11-19T07:46:37;99754.13;;;2.08;85.46
54592;BME280;40488;48.558;18.150;2023-11-19T07:49:06;99802.06;;;2.36;85.31
54592;BME280;40488;48.558;18.150;2023-11-19T07:51:36;99783.53;;;2.34;86.13
54592;BME280;40488;48.558;18.150;2023-11-19T07:54:06;99774.63;;;2.44;85.99
54592;BME280;40488;48.558;18.150;2023-11-19T07:56:35;99733.06;;;2.31;86.14
54592;BME280;40488;48.558;18.150;2023-11-19T07:59:04;99772.25;;;2.48;85.54
54592;BME280;40488;48.558;18.150;2023-11-19T08:01:34;99781.38;;;2.45;86.14
54592;BME280;40488;48.558;18.150;2023-11-19T08:04:02;99756.97;;;2.42;85.93
54592;BME280;40488;48.558;18.150;2023-11-19T08:06:33;99755.97;;;2.37;86.66
54592;BME280;40488;48.558;18.150;2023-11-19T08:09:04;99755.22;;;2.16;85.80
54592;BME280;40488;48.558;18.150;2023-11-19T08:11:33;99784.59;;;2.41;87.07
54592;BME280;40488;48.558;18.150;2023-11-19T08:14:02;99798.94;;;2.43;86.70
54592;BME280;40488;48.558;18.150;2023-11-19T08:16:32;99786.63;;;2.51;86.88
54592;BME280;40488;48.558;18.150;2023-11-19T08:19:01;99765.28;;;2.40;86.39
54592;BME280;40488;48.558;18.150;2023-11-19T08:21:30;99793.94;;;2.45;86.90
54592;BME280;40488;48.558;18.150;2023-11-19T08:23:58;99805.16;;;2.53;86.43
54592;BME280;40488;48.558;18.150;2023-11-19T08:26:29;99777.91;;;2.41;86.58
54592;BME280;40488;48.558;18.150;2023-11-19T08:28:58;99802.47;;;2.48;86.88
54592;BME280;40488;48.558;18.150;2023-11-19T08:31:26;99772.06;;;2.42;86.76
54592;BME280;40488;48.558;18.150;2023-11-19T08:33:55;99773.66;;;2.65;87.28
54592;BME280;40488;48.558;18.150;2023-11-19T08:36:24;99751.75;;;2.63;86.77
54592;BME280;40488;48.558;18.150;2023-11-19T08:38:53;99729.63;;;2.54;86.59
54592;BME280;40488;48.558;18.150;2023-11-19T08:41:22;99750.22;;;2.68;87.06
54592;BME280;40488;48.558;18.150;2023-11-19T08:43:52;99741.16;;;2.73;86.86
54592;BME280;40488;48.558;18.150;2023-11-19T08:46:21;99742.00;;;2.73;87.01
54592;BME280;40488;48.558;18.150;2023-11-19T08:48:50;99746.00;;;2.67;87.42
54592;BME280;40488;48.558;18.150;2023-11-19T08:51:18;99747.47;;;2.60;87.08
54592;BME280;40488;48.558;18.150;2023-11-19T08:53:47;99772.19;;;2.72;87.41
54592;BME280;40488;48.558;18.150;2023-11-19T08:56:16;99768.00;;;2.72;87.13
54592;BME280;40488;48.558;18.150;2023-11-19T08:58:45;99763.97;;;2.78;87.29
54592;BME280;40488;48.558;18.150;2023-11-19T09:01:17;99769.25;;;2.85;87.07
54592;BME280;40488;48.558;18.150;2023-11-19T09:03:45;99764.34;;;2.90;87.36
54592;BME280;40488;48.558;18.150;2023-11-19T09:06:14;99762.63;;;2.89;87.00
54592;BME280;40488;48.558;18.150;2023-11-19T09:08:43;99755.78;;;2.85;86.80
54592;BME280;40488;48.558;18.150;2023-11-19T09:11:12;99756.91;;;2.93;86.60
54592;BME280;40488;48.558;18.150;2023-11-19T09:13:41;99759.41;;;2.93;87.15
54592;BME280;40488;48.558;18.150;2023-11-19T09:16:11;99747.38;;;2.84;87.10
54592;BME280;40488;48.558;18.150;2023-11-19T09:18:42;99755.16;;;2.92;87.46
54592;BME280;40488;48.558;18.150;2023-11-19T09:21:12;99757.06;;;2.99;87.25
54592;BME280;40488;48.558;18.150;2023-11-19T09:23:41;99769.84;;;3.05;86.87
54592;BME280;40488;48.558;18.150;2023-11-19T09:26:11;99778.13;;;3.01;87.19
54592;BME280;40488;48.558;18.150;2023-11-19T09:28:40;99774.09;;;3.06;87.09
54592;BME280;40488;48.558;18.150;2023-11-19T09:31:15;99763.91;;;3.03;86.78
54592;BME280;40488;48.558;18.150;2023-11-19T09:33:45;99704.19;;;2.73;87.26
54592;BME280;40488;48.558;18.150;2023-11-19T09:36:15;99762.38;;;3.08;87.09
54592;BME280;40488;48.558;18.150;2023-11-19T09:38:44;99761.47;;;3.06;87.33
54592;BME280;40488;48.558;18.150;2023-11-19T09:41:12;99748.00;;;3.05;86.74
54592;BME280;40488;48.558;18.150;2023-11-19T09:43:42;99751.16;;;2.98;87.08
54592;BME280;40488;48.558;18.150;2023-11-19T09:46:13;99731.88;;;2.99;86.55
54592;BME280;40488;48.558;18.150;2023-11-19T09:48:45;99732.81;;;3.02;87.54
54592;BME280;40488;48.558;18.150;2023-11-19T09:51:16;99725.03;;;2.95;87.33
54592;BME280;40488;48.558;18.150;2023-11-19T09:53:44;99727.25;;;2.86;87.01
54592;BME280;40488;48.558;18.150;2023-11-19T09:56:14;99651.28;;;2.45;86.96
54592;BME280;40488;48.558;18.150;2023-11-19T09:58:44;99710.22;;;2.79;87.12
54592;BME280;40488;48.558;18.150;2023-11-19T10:01:15;99704.56;;;2.86;87.46
54592;BME280;40488;48.558;18.150;2023-11-19T10:03:57;99685.97;;;2.81;87.68
54592;BME280;40488;48.558;18.150;2023-11-19T10:06:26;99674.25;;;2.83;87.89
54592;BME280;40488;48.558;18.150;2023-11-19T10:08:55;99664.34;;;2.89;88.21
54592;BME280;40488;48.558;18.150;2023-11-19T10:11:24;99666.31;;;2.99;87.83
54592;BME280;40488;48.558;18.150;2023-11-19T10:13:54;99669.81;;;3.02;88.59
54592;BME280;40488;48.558;18.150;2023-11-19T10:16:28;99649.66;;;3.04;88.52
54592;BME280;40488;48.558;18.150;2023-11-19T10:19:00;99670.13;;;3.14;88.11
54592;BME280;40488;48.558;18.150;2023-11-19T10:21:29;99660.00;;;3.13;88.62
54592;BME280;40488;48.558;18.150;2023-11-19T10:24:01;99665.03;;;3.13;88.76
54592;BME280;40488;48.558;18.150;2023-11-19T10:26:30;99649.75;;;3.07;88.68
54592;BME280;40488;48.558;18.150;2023-11-19T10:29:01;99653.22;;;3.10;88.14
54592;BME280;40488;48.558;18.150;2023-11-19T10:31:31;99646.59;;;3.14;89.00
54592;BME280;40488;48.558;18.150;2023-11-19T10:34:01;99638.47;;;3.24;88.25
54592;BME280;40488;48.558;18.150;2023-11-19T10:36:38;99641.16;;;3.30;88.35
54592;BME280;40488;48.558;18.150;2023-11-19T10:39:09;99634.38;;;3.27;88.27
54592;BME280;40488;48.558;18.150;2023-11-19T10:41:39;99616.84;;;3.32;88.37
54592;BME280;40488;48.558;18.150;2023-11-19T10:44:08;99617.03;;;3.39;88.42
54592;BME280;40488;48.558;18.150;2023-11-19T10:46:37;99608.63;;;3.39;88.19
54592;BME280;40488;48.558;18.150;2023-11-19T10:49:09;99613.66;;;3.39;89.16
54592;BME280;40488;48.558;18.150;2023-11-19T10:51:44;99605.63;;;3.52;88.66
54592;BME280;40488;48.558;18.150;2023-11-19T10:54:19;99604.13;;;3.60;88.98
54592;BME280;40488;48.558;18.150;2023-11-19T10:56:54;99601.00;;;3.69;88.48
54592;BME280;40488;48.558;18.150;2023-11-19T10:59:25;99595.16;;;3.71;88.26
54592;BME280;40488;48.558;18.150;2023-11-19T11:02:03;99595.38;;;3.79;88.32
54592;BME280;40488;48.558;18.150;2023-11-19T11:04:40;99593.09;;;3.89;88.84
54592;BME280;40488;48.558;18.150;2023-11-19T11:07:10;99586.34;;;3.88;88.82
54592;BME280;40488;48.558;18.150;2023-11-19T11:09:39;99591.44;;;3.91;88.49
54592;BME280;40488;48.558;18.150;2023-11-19T11:12:11;99594.94;;;3.96;88.39
54592;BME280;40488;48.558;18.150;2023-11-19T11:14:42;99602.59;;;3.99;88.30
54592;BME280;40488;48.558;18.150;2023-11-19T11:17:17;99589.97;;;3.99;88.43
54592;BME280;40488;48.558;18.150;2023-11-19T11:19:49;99586.63;;;4.00;88.52
54592;BME280;40488;48.558;18.150;2023-11-19T11:22:19;99585.00;;;4.02;88.73
54592;BME280;40488;48.558;18.150;2023-11-19T11:25:13;99564.94;;;4.08;88.45
54592;BME280;40488;48.558;18.150;2023-11-19T11:30:59;99570.19;;;4.18;88.20
54592;BME280;40488;48.558;18.150;2023-11-19T11:33:44;99563.50;;;4.20;88.46
54592;BME280;40488;48.558;18.150;2023-11-19T11:36:27;99566.78;;;4.16;88.55
54592;BME280;40488;48.558;18.150;2023-11-19T11:38:58;99567.25;;;3.99;87.69
54592;BME280;40488;48.558;18.150;2023-11-19T11:41:29;99543.66;;;3.99;87.72
54592;BME280;40488;48.558;18.150;2023-11-19T11:43:59;99548.91;;;4.08;88.00
54592;BME280;40488;48.558;18.150;2023-11-19T11:49:25;99544.81;;;4.13;87.98
54592;BME280;40488;48.558;18.150;2023-11-19T11:52:00;99541.13;;;3.97;87.71
54592;BME280;40488;48.558;18.150;2023-11-19T11:54:29;99551.84;;;3.89;87.67
54592;BME280;40488;48.558;18.150;2023-11-19T11:57:17;99539.88;;;3.80;87.63
54592;BME280;40488;48.558;18.150;2023-11-19T11:59:47;99538.22;;;3.82;87.78
54592;BME280;40488;48.558;18.150;2023-11-19T12:02:17;99538.19;;;3.81;87.68
54592;BME280;40488;48.558;18.150;2023-11-19T12:04:47;99518.63;;;3.72;87.50
54592;BME280;40488;48.558;18.150;2023-11-19T12:07:20;99514.44;;;3.73;87.87
54592;BME280;40488;48.558;18.150;2023-11-19T12:09:52;99501.84;;;3.74;87.87
54592;BME280;40488;48.558;18.150;2023-11-19T12:12:26;99484.13;;;3.71;87.56
54592;BME280;40488;48.558;18.150;2023-11-19T12:15:16;99478.44;;;3.80;88.10
54592;BME280;40488;48.558;18.150;2023-11-19T12:17:49;99466.69;;;3.80;88.26
54592;BME280;40488;48.558;18.150;2023-11-19T12:20:21;99477.72;;;3.84;87.96
54592;BME280;40488;48.558;18.150;2023-11-19T12:22:55;99481.13;;;3.86;88.37
54592;BME280;40488;48.558;18.150;2023-11-19T12:25:24;99488.78;;;3.90;88.01
54592;BME280;40488;48.558;18.150;2023-11-19T12:27:53;99466.69;;;3.80;87.92
54592;BME280;40488;48.558;18.150;2023-11-19T12:30:23;99480.34;;;3.88;88.35
54592;BME280;40488;48.558;18.150;2023-11-19T12:32:53;99480.19;;;3.82;88.06
54592;BME280;40488;48.558;18.150;2023-11-19T12:35:23;99480.38;;;3.91;87.99
54592;BME280;40488;48.558;18.150;2023-11-19T12:37:52;99473.63;;;3.90;88.00
54592;BME280;40488;48.558;18.150;2023-11-19T12:40:23;99464.94;;;3.79;87.78
54592;BME280;40488;48.558;18.150;2023-11-19T12:42:53;99477.72;;;3.84;88.43
54592;BME280;40488;48.558;18.150;2023-11-19T12:45:23;99451.34;;;3.73;88.33
54592;BME280;40488;48.558;18.150;2023-11-19T12:48:04;99466.75;;;3.83;88.17
54592;BME280;40488;48.558;18.150;2023-11-19T12:50:51;99459.97;;;3.82;88.48
54592;BME280;40488;48.558;18.150;2023-11-19T12:53:21;99456.66;;;3.83;88.13
54592;BME280;40488;48.558;18.150;2023-11-19T12:55:52;99466.69;;;3.80;87.82
54592;BME280;40488;48.558;18.150;2023-11-19T12:58:29;99464.13;;;3.79;88.21
54592;BME280;40488;48.558;18.150;2023-11-19T13:01:02;99459.78;;;3.73;88.43
54592;BME280;40488;48.558;18.150;2023-11-19T13:03:32;99463.28;;;3.78;88.37
54592;BME280;40488;48.558;18.150;2023-11-19T13:06:02;99467.56;;;3.82;88.88
54592;BME280;40488;48.558;18.150;2023-11-19T13:08:39;99480.25;;;3.85;88.52
54592;BME280;40488;48.558;18.150;2023-11-19T13:11:10;99478.53;;;3.84;88.38
54592;BME280;40488;48.558;18.150;2023-11-19T13:13:54;99472.69;;;3.85;88.91
54592;BME280;40488;48.558;18.150;2023-11-19T13:16:23;99479.47;;;3.88;88.97
54592;BME280;40488;48.558;18.150;2023-11-19T13:18:53;99485.31;;;3.85;89.04
54592;BME280;40488;48.558;18.150;2023-11-19T13:21:22;99470.16;;;3.85;88.76